Time;durP1;ratioP1;P1;durP2;ratioP2;P2;SDS_P1;SDS_P2;PMS_P1;PMS_P2;Temp;Humidity;BMP_temperature;BMP_pressure;BME280_temperature;BME280_humidity;BME280_pressure;Samples;Min_cycle;Max_cycle;Signal;HPM_P1;HPM_P2
2024/01/18 00:00:19;;;;;;;14.95;7.97;;;-1.10;99.90;;;;;;5048159;28;20387;-62
2024/01/18 00:02:45;;;;;;;13.98;8.45;;;-1.10;99.90;;;;;;5044810;28;20068;-61
2024/01/18 00:05:11;;;;;;;17.88;8.50;;;-1.10;99.90;;;;;;5052079;28;20024;-62
2024/01/18 00:07:37;;;;;;;17.83;8.75;;;-1.10;99.90;;;;;;5048555;28;20029;-62
2024/01/18 00:10:03;;;;;;;16.15;8.25;;;-1.10;99.90;;;;;;5052227;28;20031;-60
2024/01/18 00:12:28;;;;;;;15.45;8.52;;;-1.10;99.90;;;;;;5044729;28;20453;-62
2024/01/18 00:14:54;;;;;;;19.92;8.93;;;-1.00;99.90;;;;;;5047020;28;20040;-61
2024/01/18 00:17:20;;;;;;;19.20;9.13;;;-1.00;99.90;;;;;;5008281;28;20124;-61
2024/01/18 00:19:45;;;;;;;16.83;8.50;;;-1.00;99.90;;;;;;5029370;28;20029;-61
2024/01/18 00:22:11;;;;;;;19.50;10.95;;;-1.00;99.90;;;;;;5030658;28;20030;-62
2024/01/18 00:24:37;;;;;;;20.13;9.45;;;-1.00;99.90;;;;;;5032380;28;20021;-61
2024/01/18 00:27:02;;;;;;;19.75;9.85;;;-1.00;99.90;;;;;;5030941;28;20037;-61
2024/01/18 00:29:28;;;;;;;14.15;8.05;;;-1.10;99.90;;;;;;5031141;28;20041;-62
2024/01/18 00:31:54;;;;;;;16.73;8.75;;;-1.10;99.90;;;;;;5028788;28;20045;-61
2024/01/18 00:34:19;;;;;;;17.08;9.80;;;-1.10;99.90;;;;;;5032084;28;20033;-60
2024/01/18 00:36:46;;;;;;;20.17;9.40;;;-1.10;99.90;;;;;;5031532;28;20395;-60
2024/01/18 00:39:16;;;;;;;25.27;9.68;;;-1.10;99.90;;;;;;5031621;28;20053;-62
2024/01/18 00:41:42;;;;;;;17.10;9.23;;;-1.10;99.90;;;;;;5027456;28;20394;-61
2024/01/18 00:44:08;;;;;;;22.50;10.45;;;-1.00;99.90;;;;;;5031894;28;20029;-61
2024/01/18 00:46:34;;;;;;;19.80;9.60;;;-1.00;99.90;;;;;;4997342;28;20632;-62
2024/01/18 00:49:00;;;;;;;21.70;10.60;;;-1.00;99.90;;;;;;5030594;28;20029;-61
2024/01/18 00:51:26;;;;;;;21.13;10.05;;;-1.00;99.90;;;;;;5028851;28;20038;-62
2024/01/18 00:53:51;;;;;;;26.23;10.77;;;-1.00;99.90;;;;;;5031917;28;20033;-62
2024/01/18 00:56:17;;;;;;;20.65;11.02;;;-1.00;99.90;;;;;;5031114;28;20041;-62
2024/01/18 00:58:44;;;;;;;18.35;9.85;;;-1.00;99.90;;;;;;5022081;28;20129;-62
2024/01/18 01:01:10;;;;;;;20.13;10.80;;;-1.00;99.90;;;;;;5034107;28;20483;-62
2024/01/18 01:03:35;;;;;;;24.45;11.70;;;-1.00;99.90;;;;;;5032902;28;20025;-61
2024/01/18 01:06:01;;;;;;;21.48;9.85;;;-1.00;99.90;;;;;;5031078;28;20475;-62
2024/01/18 01:08:27;;;;;;;19.13;10.25;;;-1.00;99.90;;;;;;5024417;28;20021;-62
2024/01/18 01:10:53;;;;;;;16.65;9.15;;;-1.00;99.90;;;;;;5034437;28;20025;-62
2024/01/18 01:13:18;;;;;;;26.23;11.85;;;-1.10;99.90;;;;;;5036053;28;20370;-60
2024/01/18 01:15:44;;;;;;;18.75;10.15;;;-1.00;99.90;;;;;;5037387;28;20037;-61
2024/01/18 01:18:11;;;;;;;28.45;10.82;;;-1.00;99.90;;;;;;5035455;28;20029;-61
2024/01/18 01:20:36;;;;;;;22.05;10.48;;;-1.00;99.90;;;;;;5032214;28;20013;-61
2024/01/18 01:23:03;;;;;;;19.35;10.38;;;-1.00;99.90;;;;;;5036425;28;20084;-59
2024/01/18 01:25:28;;;;;;;25.65;10.10;;;-1.10;99.90;;;;;;5033363;28;20438;-60
2024/01/18 01:27:54;;;;;;;21.40;10.90;;;-1.10;99.90;;;;;;5027663;28;20049;-62
2024/01/18 01:30:20;;;;;;;23.08;11.65;;;-1.00;99.90;;;;;;5030355;28;20432;-60
2024/01/18 01:32:45;;;;;;;26.20;11.75;;;-1.00;99.90;;;;;;5033185;28;20034;-61
2024/01/18 01:35:11;;;;;;;24.00;11.90;;;-1.00;99.90;;;;;;5029178;28;20037;-61
2024/01/18 01:37:37;;;;;;;23.92;11.80;;;-1.00;99.90;;;;;;5029585;28;20025;-60
2024/01/18 01:40:05;;;;;;;21.92;11.20;;;-1.00;99.90;;;;;;5031077;28;20025;-60
2024/01/18 01:42:31;;;;;;;21.35;11.75;;;-1.00;99.90;;;;;;5031131;28;20017;-62
2024/01/18 01:44:56;;;;;;;25.60;12.88;;;-1.00;99.90;;;;;;5026923;28;20036;-60
2024/01/18 01:47:22;;;;;;;27.67;12.43;;;-1.00;99.90;;;;;;4995962;28;20065;-62
2024/01/18 01:49:48;;;;;;;27.55;12.18;;;-1.00;99.90;;;;;;5032463;28;20021;-62
2024/01/18 01:52:15;;;;;;;25.35;12.00;;;-1.00;99.90;;;;;;5031502;28;20022;-61
2024/01/18 01:54:41;;;;;;;31.48;13.57;;;-1.00;99.90;;;;;;5031351;28;20025;-61
2024/01/18 01:57:07;;;;;;;27.17;14.15;;;-0.90;99.90;;;;;;5030942;28;20446;-60
2024/01/18 01:59:33;;;;;;;26.70;13.45;;;-1.00;99.90;;;;;;5030309;28;20029;-61
2024/01/18 02:01:59;;;;;;;30.50;14.02;;;-1.00;99.90;;;;;;5031911;28;20030;-60
2024/01/18 02:04:25;;;;;;;28.85;15.05;;;-1.00;99.90;;;;;;5031001;28;20029;-61
2024/01/18 02:06:53;;;;;;;26.08;13.07;;;-1.00;99.90;;;;;;5032245;28;20033;-62
2024/01/18 02:09:19;;;;;;;33.38;15.80;;;-1.00;99.90;;;;;;5031521;28;20036;-61
2024/01/18 02:11:45;;;;;;;32.80;15.30;;;-1.00;99.90;;;;;;5031189;28;20037;-61
2024/01/18 02:14:11;;;;;;;39.00;17.70;;;-1.00;99.90;;;;;;5031839;28;20108;-60
2024/01/18 02:16:37;;;;;;;40.05;17.58;;;-1.00;99.90;;;;;;5032036;28;20021;-61
2024/01/18 02:19:03;;;;;;;31.60;17.42;;;-1.10;99.90;;;;;;5029666;28;20075;-62
2024/01/18 02:21:28;;;;;;;39.22;18.13;;;-1.10;99.90;;;;;;5032662;28;20466;-60
2024/01/18 02:24:02;;;;;;;37.13;17.75;;;-1.10;99.90;;;;;;5027102;28;21380;-62
2024/01/18 02:26:27;;;;;;;42.97;19.45;;;-1.10;99.90;;;;;;5017274;28;20040;-62
2024/01/18 02:28:57;;;;;;;37.72;17.58;;;-1.10;99.90;;;;;;5023955;28;20511;-62
2024/01/18 02:31:23;;;;;;;37.38;18.02;;;-1.10;99.90;;;;;;5026119;28;20495;-61
2024/01/18 02:33:49;;;;;;;36.95;17.98;;;-1.10;99.90;;;;;;5031424;28;20574;-61
2024/01/18 02:36:15;;;;;;;33.85;17.40;;;-1.10;99.90;;;;;;5030387;28;20029;-61
2024/01/18 02:38:42;;;;;;;40.25;17.95;;;-1.00;99.90;;;;;;5029099;28;20025;-62
2024/01/18 02:41:08;;;;;;;40.53;18.33;;;-1.10;99.90;;;;;;5031125;28;20026;-61
2024/01/18 02:43:33;;;;;;;43.25;17.55;;;-1.00;99.90;;;;;;5028505;28;20035;-61
2024/01/18 02:45:59;;;;;;;33.95;17.38;;;-1.00;99.90;;;;;;5028120;28;20084;-61
2024/01/18 02:48:25;;;;;;;34.55;18.27;;;-1.00;99.90;;;;;;5005367;28;20030;-62
2024/01/18 02:50:51;;;;;;;41.10;16.60;;;-1.00;99.90;;;;;;5020929;28;20053;-62
2024/01/18 02:53:20;;;;;;;33.95;16.33;;;-1.00;99.90;;;;;;5032936;28;20038;-62
2024/01/18 02:55:45;;;;;;;40.60;17.92;;;-1.00;99.90;;;;;;5033680;28;20474;-61
2024/01/18 02:58:11;;;;;;;38.97;17.52;;;-1.00;99.90;;;;;;5030208;28;20033;-62
2024/01/18 03:00:38;;;;;;;38.05;18.55;;;-1.00;99.90;;;;;;5031123;28;20514;-61
2024/01/18 03:03:04;;;;;;;37.35;17.13;;;-1.10;99.90;;;;;;5029788;28;20083;-62
2024/01/18 03:05:30;;;;;;;37.55;17.80;;;-1.10;99.90;;;;;;5031248;28;20391;-62
2024/01/18 03:07:55;;;;;;;32.58;17.38;;;-1.10;99.90;;;;;;5026975;28;20029;-59
2024/01/18 03:10:22;;;;;;;35.60;18.13;;;-1.10;99.90;;;;;;5030801;28;20037;-61
2024/01/18 03:12:47;;;;;;;34.70;17.45;;;-1.10;99.90;;;;;;5030903;28;20095;-60
2024/01/18 03:15:13;;;;;;;46.95;19.50;;;-1.00;99.90;;;;;;5028835;28;20500;-61
2024/01/18 03:17:39;;;;;;;39.30;19.77;;;-1.00;99.90;;;;;;5032850;28;20064;-62
2024/01/18 03:20:07;;;;;;;35.05;17.75;;;-1.10;99.90;;;;;;5032773;28;20021;-61
2024/01/18 03:22:39;;;;;;;38.40;17.65;;;-1.00;99.90;;;;;;5033568;28;20087;-61
2024/01/18 03:25:05;;;;;;;42.78;19.35;;;-1.00;99.90;;;;;;5033199;28;20479;-61
2024/01/18 03:27:30;;;;;;;43.45;19.02;;;-1.00;99.90;;;;;;5036612;28;20040;-62
2024/01/18 03:29:56;;;;;;;44.58;18.95;;;-1.00;99.90;;;;;;5032916;28;20491;-60
2024/01/18 03:32:22;;;;;;;39.63;18.83;;;-1.00;99.90;;;;;;5015258;28;20080;-62
2024/01/18 03:34:48;;;;;;;35.72;17.05;;;-1.00;99.90;;;;;;5015771;28;20036;-60
2024/01/18 03:37:13;;;;;;;37.92;18.08;;;-1.10;99.90;;;;;;5032740;28;20918;-62
2024/01/18 03:39:39;;;;;;;40.15;18.42;;;-1.10;99.90;;;;;;5036470;28;20487;-62
2024/01/18 03:42:04;;;;;;;40.45;19.65;;;-1.10;99.90;;;;;;5031997;28;20022;-62
2024/01/18 03:44:32;;;;;;;48.53;20.35;;;-1.10;99.90;;;;;;5035182;28;20091;-62
2024/01/18 03:46:59;;;;;;;41.95;18.70;;;-1.10;99.90;;;;;;5033016;28;20503;-62
2024/01/18 03:49:25;;;;;;;42.08;19.38;;;-1.10;99.90;;;;;;5007622;28;20033;-62
2024/01/18 03:51:50;;;;;;;46.40;20.50;;;-1.10;99.90;;;;;;5034264;28;20033;-61
2024/01/18 03:54:16;;;;;;;44.28;20.27;;;-1.10;99.90;;;;;;5033251;28;20069;-60
2024/01/18 03:56:41;;;;;;;41.20;18.88;;;-1.10;99.90;;;;;;5034098;28;20664;-60
2024/01/18 03:59:07;;;;;;;42.80;18.45;;;-1.10;99.90;;;;;;5036531;28;20032;-61
2024/01/18 04:01:33;;;;;;;37.22;18.17;;;-1.10;99.90;;;;;;5032427;28;20025;-62
2024/01/18 04:04:00;;;;;;;39.15;18.05;;;-1.10;99.90;;;;;;5033940;28;20100;-61
2024/01/18 04:06:25;;;;;;;32.88;15.65;;;-1.10;99.90;;;;;;5036058;28;20130;-61
2024/01/18 04:08:51;;;;;;;33.67;15.60;;;-1.20;99.90;;;;;;5033460;28;20583;-62
2024/01/18 04:11:17;;;;;;;33.35;15.20;;;-1.20;99.90;;;;;;5038553;28;20049;-61
2024/01/18 04:13:42;;;;;;;32.63;16.23;;;-1.20;99.90;;;;;;5032535;28;20044;-62
2024/01/18 04:16:08;;;;;;;37.60;16.50;;;-1.20;99.90;;;;;;5033417;28;20110;-62
2024/01/18 04:18:34;;;;;;;34.63;17.38;;;-1.20;99.90;;;;;;5032817;28;20029;-62
2024/01/18 04:20:59;;;;;;;32.67;16.15;;;-1.20;99.90;;;;;;5035543;28;20090;-61
2024/01/18 04:23:25;;;;;;;34.78;16.92;;;-1.20;99.90;;;;;;5033091;28;20116;-62
2024/01/18 04:25:52;;;;;;;31.30;15.48;;;-1.20;99.90;;;;;;5031347;28;20418;-61
2024/01/18 04:28:21;;;;;;;33.22;16.67;;;-1.20;99.90;;;;;;5015320;28;20029;-61
2024/01/18 04:30:47;;;;;;;37.97;15.20;;;-1.20;99.90;;;;;;5032352;28;20363;-62
2024/01/18 04:33:13;;;;;;;30.55;14.27;;;-1.20;99.90;;;;;;5032019;28;20041;-62
2024/01/18 04:35:39;;;;;;;33.47;15.27;;;-1.30;99.90;;;;;;5033336;28;20510;-62
2024/01/18 04:38:06;;;;;;;31.90;15.55;;;-1.30;99.90;;;;;;5031836;28;20037;-62
2024/01/18 04:40:32;;;;;;;34.08;15.20;;;-1.30;99.90;;;;;;5032206;28;20025;-62
2024/01/18 04:42:58;;;;;;;38.78;15.68;;;-1.30;99.90;;;;;;5032336;28;20166;-62
2024/01/18 04:45:24;;;;;;;38.72;16.95;;;-1.30;99.90;;;;;;5031114;28;20030;-61
2024/01/18 04:47:52;;;;;;;44.45;16.35;;;-1.30;99.90;;;;;;5008222;28;20095;-61
2024/01/18 04:50:20;;;;;;;36.28;15.25;;;-1.30;99.90;;;;;;5017723;28;20022;-60
2024/01/18 04:52:47;;;;;;;31.40;14.93;;;-1.30;99.90;;;;;;5032400;28;20030;-60
2024/01/18 04:55:13;;;;;;;36.22;16.55;;;-1.40;99.90;;;;;;5033862;28;20016;-61
2024/01/18 04:57:39;;;;;;;30.88;15.70;;;-1.30;99.90;;;;;;5030084;28;20116;-61
2024/01/18 05:00:10;;;;;;;32.22;14.90;;;-1.30;99.90;;;;;;5028623;28;20087;-61
2024/01/18 05:02:39;;;;;;;37.13;16.88;;;-1.30;99.90;;;;;;5034244;28;20029;-61
2024/01/18 05:05:08;;;;;;;37.15;17.00;;;-1.30;99.90;;;;;;5033263;28;20049;-61
2024/01/18 05:07:37;;;;;;;31.48;15.75;;;-1.40;99.90;;;;;;5032604;28;20029;-61
2024/01/18 05:10:05;;;;;;;33.42;16.17;;;-1.40;99.90;;;;;;5029694;28;20045;-61
2024/01/18 05:12:31;;;;;;;36.72;16.52;;;-1.40;99.90;;;;;;5013806;28;20041;-59
2024/01/18 05:14:57;;;;;;;34.05;16.65;;;-1.40;99.90;;;;;;5031177;28;20030;-61
2024/01/18 05:17:22;;;;;;;36.47;15.73;;;-1.40;99.90;;;;;;5030303;28;20052;-61
2024/01/18 05:19:48;;;;;;;39.15;15.82;;;-1.40;99.90;;;;;;5032882;28;20083;-61
2024/01/18 05:22:14;;;;;;;35.15;16.10;;;-1.40;99.90;;;;;;5031565;28;20387;-61
2024/01/18 05:24:40;;;;;;;37.15;16.95;;;-1.40;99.90;;;;;;5033288;28;20033;-61
2024/01/18 05:29:34;;;;;;;37.67;16.85;;;-1.40;99.90;;;;;;5050214;28;20056;-67
2024/01/18 05:31:59;;;;;;;36.65;17.42;;;-1.40;99.90;;;;;;5053554;28;20021;-67
2024/01/18 05:34:26;;;;;;;38.90;17.80;;;-1.40;99.90;;;;;;5054588;28;20048;-65
2024/01/18 05:36:52;;;;;;;38.85;17.95;;;-1.40;99.90;;;;;;5054549;28;20025;-65
2024/01/18 05:39:17;;;;;;;34.03;17.08;;;-1.40;99.90;;;;;;5050406;28;20020;-65
2024/01/18 05:41:43;;;;;;;33.45;16.85;;;-1.40;99.90;;;;;;5047086;28;20029;-66
2024/01/18 05:44:09;;;;;;;38.92;18.75;;;-1.40;99.90;;;;;;5040232;28;20033;-65
2024/01/18 05:46:35;;;;;;;34.45;18.27;;;-1.30;99.90;;;;;;5029071;28;20420;-64
2024/01/18 05:49:02;;;;;;;36.70;17.48;;;-1.30;99.90;;;;;;5020711;28;20059;-65
2024/01/18 05:51:28;;;;;;;37.65;18.38;;;-1.30;99.90;;;;;;5047086;28;20029;-65
2024/01/18 05:53:53;;;;;;;45.33;17.90;;;-1.30;99.90;;;;;;5034577;28;20041;-65
2024/01/18 05:56:19;;;;;;;33.92;17.60;;;-1.30;99.90;;;;;;5043693;28;20025;-65
2024/01/18 05:58:46;;;;;;;34.90;18.25;;;-1.30;99.90;;;;;;5051018;28;20506;-64
2024/01/18 06:01:11;;;;;;;32.10;17.50;;;-1.30;99.90;;;;;;5047263;28;20029;-65
2024/01/18 06:03:37;;;;;;;40.38;18.50;;;-1.30;99.90;;;;;;5049802;28;20036;-64
2024/01/18 06:06:04;;;;;;;43.35;19.45;;;-1.30;99.90;;;;;;5047775;28;20597;-65
2024/01/18 06:08:29;;;;;;;41.67;18.42;;;-1.30;99.90;;;;;;5053271;28;20147;-64
2024/01/18 06:10:55;;;;;;;39.95;19.55;;;-1.20;99.90;;;;;;5052362;28;20121;-65
2024/01/18 06:13:21;;;;;;;38.42;18.90;;;-1.20;99.90;;;;;;5048519;28;20029;-64
2024/01/18 06:15:46;;;;;;;42.50;19.50;;;-1.20;99.90;;;;;;5050092;28;20037;-65
2024/01/18 06:18:12;;;;;;;46.42;19.50;;;-1.20;99.90;;;;;;5046760;28;20495;-65
2024/01/18 06:20:37;;;;;;;37.85;19.10;;;-1.20;99.90;;;;;;5050953;28;20112;-64
2024/01/18 06:23:03;;;;;;;47.92;18.40;;;-1.20;99.90;;;;;;5047404;28;20021;-65
2024/01/18 06:25:29;;;;;;;38.10;18.10;;;-1.20;99.90;;;;;;5048216;28;20115;-65
2024/01/18 06:27:54;;;;;;;43.17;19.33;;;-1.20;99.90;;;;;;5050912;28;20036;-65
2024/01/18 06:30:20;;;;;;;48.58;20.58;;;-1.20;99.90;;;;;;5056960;28;20028;-65
2024/01/18 06:32:46;;;;;;;47.95;21.25;;;-1.20;99.90;;;;;;5055227;28;20044;-64
2024/01/18 06:35:11;;;;;;;41.65;20.73;;;-1.20;99.90;;;;;;5047970;28;20036;-64
2024/01/18 06:37:38;;;;;;;40.45;19.73;;;-1.20;99.90;;;;;;5049584;28;20117;-65
2024/01/18 06:40:04;;;;;;;41.67;19.55;;;-1.20;99.90;;;;;;5049014;28;20398;-65
2024/01/18 06:42:31;;;;;;;34.47;17.67;;;-1.20;99.90;;;;;;5058875;28;20041;-65
2024/01/18 06:44:57;;;;;;;40.28;19.02;;;-1.20;99.90;;;;;;5052218;28;20044;-65
2024/01/18 06:47:23;;;;;;;36.67;19.58;;;-1.20;99.90;;;;;;5051966;28;20021;-65
2024/01/18 06:49:48;;;;;;;36.38;18.67;;;-1.20;99.90;;;;;;5023400;28;20122;-65
2024/01/18 06:52:14;;;;;;;36.78;18.58;;;-1.10;99.90;;;;;;5051391;28;20034;-64
2024/01/18 06:54:43;;;;;;;41.83;19.58;;;-1.20;99.90;;;;;;5049789;28;20037;-64
2024/01/18 06:57:08;;;;;;;38.95;19.45;;;-1.20;99.90;;;;;;5055275;28;20514;-65
2024/01/18 06:59:35;;;;;;;49.30;23.70;;;-1.20;99.90;;;;;;5060293;28;20036;-65
2024/01/18 07:02:01;;;;;;;46.28;22.20;;;-1.10;99.90;;;;;;5042794;28;20032;-66
2024/01/18 07:04:26;;;;;;;46.60;22.20;;;-1.20;99.90;;;;;;5031586;28;20021;-65
2024/01/18 07:06:52;;;;;;;47.38;21.73;;;-1.20;99.90;;;;;;5049137;28;20033;-66
2024/01/18 07:09:18;;;;;;;44.20;20.38;;;-1.20;99.90;;;;;;5045653;28;20040;-65
2024/01/18 07:11:43;;;;;;;48.75;19.65;;;-1.20;99.90;;;;;;5049140;28;20037;-66
2024/01/18 07:14:09;;;;;;;38.25;18.38;;;-1.20;99.90;;;;;;5050081;28;20032;-65
2024/01/18 07:16:35;;;;;;;40.20;19.65;;;-1.20;99.90;;;;;;5046492;28;20033;-65
2024/01/18 07:19:01;;;;;;;46.78;23.15;;;-1.20;99.90;;;;;;5047337;28;20029;-65
2024/01/18 07:21:26;;;;;;;47.85;23.20;;;-1.10;99.90;;;;;;5047930;28;20029;-65
2024/01/18 07:23:52;;;;;;;44.13;20.98;;;-1.10;99.90;;;;;;5049080;28;20060;-64
2024/01/18 07:26:18;;;;;;;42.60;20.08;;;-1.10;99.90;;;;;;5048695;28;20037;-65
2024/01/18 07:28:44;;;;;;;38.75;19.95;;;-1.10;99.90;;;;;;5053561;28;20025;-66
2024/01/18 07:31:09;;;;;;;36.35;18.67;;;-1.10;99.90;;;;;;5050985;28;20021;-66
2024/01/18 07:33:37;;;;;;;43.15;19.45;;;-1.10;99.90;;;;;;5051710;28;20471;-65
2024/01/18 07:36:03;;;;;;;38.28;18.30;;;-1.10;99.90;;;;;;5061251;28;20034;-66
2024/01/18 07:38:28;;;;;;;39.28;19.90;;;-1.10;99.90;;;;;;5052901;28;20089;-67
2024/01/18 07:40:54;;;;;;;45.97;20.83;;;-1.10;99.90;;;;;;5055461;28;20021;-67
2024/01/18 07:43:19;;;;;;;39.42;19.20;;;-1.20;99.90;;;;;;5059577;28;20032;-66
2024/01/18 07:45:45;;;;;;;37.25;19.20;;;-1.20;99.90;;;;;;5059659;28;20454;-66
2024/01/18 07:48:10;;;;;;;40.10;20.10;;;-1.10;99.90;;;;;;5061820;28;20111;-66
2024/01/18 07:50:37;;;;;;;35.72;19.00;;;-1.10;99.90;;;;;;5031865;28;20036;-67
2024/01/18 07:53:03;;;;;;;42.28;20.85;;;-1.10;99.90;;;;;;5062988;28;20024;-67
2024/01/18 07:55:29;;;;;;;48.42;20.92;;;-1.10;99.90;;;;;;5058326;28;20067;-66
2024/01/18 07:57:54;;;;;;;45.40;22.83;;;-1.10;99.90;;;;;;5041477;28;20110;-67
2024/01/18 08:00:20;;;;;;;43.83;21.10;;;-1.10;99.90;;;;;;5061037;28;20412;-67
2024/01/18 08:02:45;;;;;;;48.22;22.30;;;-1.10;99.90;;;;;;5064472;28;20048;-66
2024/01/18 08:05:12;;;;;;;48.67;19.90;;;-1.10;99.90;;;;;;5058162;28;20048;-66
2024/01/18 08:07:38;;;;;;;41.40;19.50;;;-1.10;99.90;;;;;;5056643;28;20032;-67
2024/01/18 08:10:06;;;;;;;39.28;19.30;;;-1.10;99.90;;;;;;5049378;28;20013;-66
2024/01/18 08:12:31;;;;;;;46.35;21.58;;;-1.00;99.90;;;;;;5033981;28;20076;-67
2024/01/18 08:14:57;;;;;;;45.20;20.85;;;-1.00;99.90;;;;;;5050296;28;20114;-67
2024/01/18 08:17:22;;;;;;;46.17;20.80;;;-1.00;99.90;;;;;;5049512;28;20067;-67
2024/01/18 08:19:48;;;;;;;41.92;20.60;;;-1.00;99.90;;;;;;5055535;28;20021;-67
2024/01/18 08:22:14;;;;;;;46.53;22.05;;;-1.00;99.90;;;;;;5054677;28;20025;-67
2024/01/18 08:24:41;;;;;;;51.63;23.38;;;-0.90;99.90;;;;;;5066150;28;20016;-67
2024/01/18 08:27:07;;;;;;;47.70;22.45;;;-0.80;99.90;;;;;;5062148;28;20476;-66
2024/01/18 08:29:33;;;;;;;49.15;20.90;;;-0.90;99.90;;;;;;5058230;28;20040;-66
2024/01/18 08:32:00;;;;;;;41.47;21.77;;;-0.90;99.90;;;;;;5053070;28;20374;-66
2024/01/18 08:34:25;;;;;;;46.08;20.48;;;-0.80;99.90;;;;;;5054583;28;20027;-67
2024/01/18 08:36:51;;;;;;;48.70;22.67;;;-0.90;99.90;;;;;;5052810;28;20029;-67
2024/01/18 08:39:17;;;;;;;56.92;21.55;;;-0.90;99.90;;;;;;5063825;28;20071;-66
2024/01/18 08:41:42;;;;;;;48.13;21.00;;;-0.90;99.90;;;;;;5067203;28;20017;-65
2024/01/18 08:44:09;;;;;;;49.63;21.88;;;-0.80;99.90;;;;;;5037159;28;20066;-67
2024/01/18 08:46:35;;;;;;;49.13;21.50;;;-0.80;99.90;;;;;;5050202;28;20116;-66
2024/01/18 08:49:00;;;;;;;55.22;23.83;;;-0.80;99.90;;;;;;5049710;28;20498;-67
2024/01/18 08:51:26;;;;;;;44.53;21.88;;;-0.80;99.90;;;;;;5029511;28;20123;-66
2024/01/18 08:53:51;;;;;;;39.28;21.48;;;-0.80;99.90;;;;;;5054682;28;20495;-67
2024/01/18 08:56:17;;;;;;;49.63;22.23;;;-0.90;99.90;;;;;;5052746;28;20024;-66
2024/01/18 08:58:43;;;;;;;47.83;21.10;;;-0.90;99.90;;;;;;5060321;28;20066;-67
2024/01/18 09:01:09;;;;;;;43.92;21.75;;;-0.80;99.90;;;;;;5050533;28;20029;-67
2024/01/18 09:03:34;;;;;;;46.88;20.77;;;-0.90;99.90;;;;;;5051704;28;20033;-65
2024/01/18 09:06:00;;;;;;;45.55;22.30;;;-0.90;99.90;;;;;;5052818;28;20033;-66
2024/01/18 09:08:25;;;;;;;49.08;20.42;;;-0.90;99.90;;;;;;5049386;28;20028;-66
2024/01/18 09:10:52;;;;;;;46.35;20.75;;;-1.00;99.90;;;;;;5057363;28;20029;-67
2024/01/18 09:13:19;;;;;;;41.90;19.75;;;-1.10;99.90;;;;;;5061925;28;20105;-67
2024/01/18 09:15:45;;;;;;;54.53;21.38;;;-1.20;99.90;;;;;;5064373;28;20102;-66
2024/01/18 09:18:11;;;;;;;54.63;22.10;;;-1.30;99.90;;;;;;5066846;28;20024;-66
2024/01/18 09:20:37;;;;;;;47.65;21.33;;;-1.30;99.90;;;;;;5034450;28;20036;-67
2024/01/18 09:23:03;;;;;;;46.25;21.08;;;-1.30;99.90;;;;;;5042788;28;20021;-66
2024/01/18 09:25:29;;;;;;;51.15;23.08;;;-1.20;99.90;;;;;;5049236;28;20027;-66
2024/01/18 09:27:55;;;;;;;46.97;23.23;;;-1.10;99.90;;;;;;5048421;28;20483;-66
2024/01/18 09:30:20;;;;;;;48.72;21.88;;;-1.10;99.90;;;;;;5054709;28;20033;-67
2024/01/18 09:32:46;;;;;;;46.47;21.40;;;-1.10;99.90;;;;;;5049778;28;20115;-66
2024/01/18 09:35:12;;;;;;;48.92;22.60;;;-0.90;99.90;;;;;;5052222;28;20497;-67
2024/01/18 09:37:37;;;;;;;49.97;22.50;;;-0.80;99.90;;;;;;5045774;28;20430;-67
2024/01/18 09:40:04;;;;;;;50.22;22.55;;;-0.60;99.90;;;;;;5050499;28;20074;-67
2024/01/18 09:42:32;;;;;;;44.88;21.55;;;-0.40;99.90;;;;;;5052082;28;20028;-65
2024/01/18 09:45:03;;;;;;;43.78;20.08;;;-0.30;99.90;;;;;;5047446;28;20522;-66
2024/01/18 09:47:28;;;;;;;46.85;21.65;;;-0.20;99.90;;;;;;5053404;28;20091;-67
2024/01/18 09:49:56;;;;;;;43.67;21.15;;;-0.20;99.90;;;;;;5047872;28;20028;-66
2024/01/18 09:52:21;;;;;;;40.30;19.67;;;-0.10;99.90;;;;;;5032249;28;20059;-67
2024/01/18 09:54:47;;;;;;;42.05;20.85;;;0.00;99.90;;;;;;5049885;28;20100;-67
2024/01/18 09:57:15;;;;;;;41.95;20.17;;;0.00;99.90;;;;;;5048846;28;20528;-67
2024/01/18 09:59:44;;;;;;;44.25;22.85;;;0.20;99.90;;;;;;5041057;28;20418;-66
2024/01/18 10:02:09;;;;;;;40.95;21.25;;;0.30;99.90;;;;;;5045913;28;20029;-66
2024/01/18 10:04:36;;;;;;;50.30;20.98;;;0.40;99.90;;;;;;5052513;28;20674;-66
2024/01/18 10:07:01;;;;;;;43.58;19.90;;;0.50;99.90;;;;;;5055347;28;20035;-67
2024/01/18 10:09:28;;;;;;;41.88;20.50;;;0.60;99.90;;;;;;5053839;28;20025;-66
2024/01/18 10:11:53;;;;;;;38.25;19.00;;;0.70;99.90;;;;;;5054312;28;20033;-66
2024/01/18 10:14:40;;;;;;;53.95;21.90;;;0.60;99.90;;;;;;5050136;28;20047;-66
2024/01/18 10:17:06;;;;;;;43.15;19.33;;;0.60;99.90;;;;;;5046958;28;20021;-67
2024/01/18 10:19:31;;;;;;;39.35;18.65;;;0.70;99.90;;;;;;5052062;28;20027;-67
2024/01/18 10:21:57;;;;;;;41.42;19.33;;;0.70;99.90;;;;;;5048816;28;20043;-65
2024/01/18 10:24:23;;;;;;;42.97;19.70;;;0.70;99.90;;;;;;5046754;28;20025;-66
2024/01/18 10:27:00;;;;;;;47.95;18.73;;;0.70;99.90;;;;;;5052311;28;20020;-67
2024/01/18 10:29:26;;;;;;;41.28;19.48;;;0.80;99.90;;;;;;5048164;28;20033;-66
2024/01/18 10:31:52;;;;;;;42.47;20.38;;;0.80;99.90;;;;;;5045692;28;20039;-65
2024/01/18 10:34:19;;;;;;;39.22;18.35;;;0.80;99.90;;;;;;5037899;28;20021;-65
2024/01/18 10:36:45;;;;;;;40.72;17.48;;;0.90;99.90;;;;;;5058979;28;20103;-66
2024/01/18 10:39:17;;;;;;;38.35;18.55;;;1.00;99.90;;;;;;5048814;28;20540;-66
2024/01/18 10:41:43;;;;;;;36.45;17.42;;;1.00;99.90;;;;;;5048746;28;20032;-66
2024/01/18 10:44:09;;;;;;;34.05;16.33;;;1.20;99.90;;;;;;5047940;28;20032;-66
2024/01/18 10:46:35;;;;;;;41.97;17.13;;;1.30;99.90;;;;;;5048617;28;20435;-66
2024/01/18 10:49:02;;;;;;;35.50;15.90;;;1.40;99.90;;;;;;5043659;28;20072;-66
2024/01/18 10:51:28;;;;;;;32.30;15.18;;;1.50;99.90;;;;;;5033931;28;20040;-66
2024/01/18 10:53:54;;;;;;;34.65;16.75;;;1.70;99.90;;;;;;5044148;28;20037;-66
2024/01/18 10:56:22;;;;;;;38.80;16.75;;;1.70;99.90;;;;;;5053416;28;20121;-67
2024/01/18 10:58:48;;;;;;;37.17;16.65;;;1.80;99.90;;;;;;5052658;28;20451;-66
2024/01/18 11:01:16;;;;;;;33.25;15.45;;;1.70;99.90;;;;;;5050970;28;20021;-66
2024/01/18 11:03:43;;;;;;;39.33;17.05;;;1.90;99.90;;;;;;5051219;28;20096;-66
2024/01/18 11:06:12;;;;;;;35.58;15.90;;;2.20;99.90;;;;;;5053474;28;20029;-66
2024/01/18 11:08:40;;;;;;;30.40;14.45;;;2.20;99.90;;;;;;5046992;28;20032;-65
2024/01/18 11:11:06;;;;;;;26.25;13.63;;;2.40;99.90;;;;;;5050910;28;20063;-66
2024/01/18 11:13:33;;;;;;;31.13;14.55;;;2.40;99.90;;;;;;5059266;28;20038;-65
2024/01/18 11:15:58;;;;;;;30.30;13.15;;;2.40;99.90;;;;;;5057227;28;20028;-65
2024/01/18 11:18:24;;;;;;;27.17;12.50;;;2.60;99.90;;;;;;5054384;28;20032;-62
2024/01/18 11:20:59;;;;;;;25.80;13.05;;;2.60;99.90;;;;;;5046858;28;20028;-66
2024/01/18 11:23:36;;;;;;;32.35;14.18;;;2.60;99.90;;;;;;5057873;28;20386;-67
2024/01/18 11:26:06;;;;;;;28.50;13.38;;;2.40;99.90;;;;;;5057928;28;20021;-66
2024/01/18 11:28:33;;;;;;;27.58;13.43;;;2.50;99.90;;;;;;5066717;23;20502;-65
2024/01/18 11:30:59;;;;;;;31.15;14.95;;;2.30;99.90;;;;;;5040159;28;20537;-62
2024/01/18 11:33:26;;;;;;;25.30;13.32;;;2.40;99.90;;;;;;5037959;28;20075;-63
2024/01/18 11:35:52;;;;;;;26.38;13.10;;;2.40;99.90;;;;;;5038685;28;20040;-63
2024/01/18 11:38:32;;;;;;;28.45;15.18;;;2.40;99.90;;;;;;5033528;28;20309;-63
2024/01/18 11:41:09;;;;;;;37.00;14.93;;;2.30;99.90;;;;;;5040400;28;20021;-63
2024/01/18 11:43:54;;;;;;;34.22;15.60;;;1.90;99.90;;;;;;5033152;28;20026;-63
2024/01/18 11:46:32;;;;;;;33.72;15.38;;;2.00;99.90;;;;;;5035433;28;20060;-63
2024/01/18 11:48:58;;;;;;;33.20;15.70;;;2.10;99.90;;;;;;5034683;28;20044;-64
2024/01/18 11:51:24;;;;;;;33.33;17.70;;;2.10;99.90;;;;;;5018710;28;20038;-63
2024/01/18 11:53:50;;;;;;;28.17;16.17;;;2.10;99.90;;;;;;5048343;28;20139;-63
2024/01/18 11:56:18;;;;;;;36.30;18.00;;;1.90;99.90;;;;;;5047862;28;20100;-63
2024/01/18 11:58:44;;;;;;;29.85;17.83;;;1.90;99.90;;;;;;5038143;28;20516;-63
2024/01/18 12:01:13;;;;;;;39.63;17.25;;;1.80;99.90;;;;;;5051136;28;20092;-62
2024/01/18 12:03:38;;;;;;;33.88;19.67;;;1.80;99.90;;;;;;5044707;28;20033;-63
2024/01/18 12:06:04;;;;;;;38.65;19.63;;;1.80;99.90;;;;;;5044789;28;21870;-62
2024/01/18 12:08:30;;;;;;;33.67;18.40;;;1.90;99.90;;;;;;5046330;28;20423;-62
2024/01/18 12:10:55;;;;;;;41.75;19.58;;;1.70;99.90;;;;;;5054686;28;20024;-63
2024/01/18 12:13:21;;;;;;;38.63;20.20;;;1.70;99.90;;;;;;5055473;28;20359;-63
2024/01/18 12:15:51;;;;;;;35.28;19.77;;;1.70;99.90;;;;;;5046215;28;20108;-63
2024/01/18 12:18:16;;;;;;;36.75;20.30;;;1.60;99.90;;;;;;5042182;28;20049;-63
2024/01/18 12:20:43;;;;;;;39.97;19.88;;;1.50;99.90;;;;;;5036972;28;20060;-62
2024/01/18 12:23:15;;;;;;;37.67;20.08;;;1.50;99.90;;;;;;5037756;28;20539;-63
2024/01/18 12:25:41;;;;;;;43.28;20.30;;;1.50;99.90;;;;;;5059194;28;20068;-63
2024/01/18 12:28:07;;;;;;;43.03;20.65;;;1.40;99.90;;;;;;5046815;28;20068;-63